Gorch Fock — DRAX — position and weather

sailwx.info

Track history (hours):
 
Tides and Currents Weather Stations Pressure Air Temp Water Temp Dewpoint Dewpoint Depression Visibility Wind Speed Wind Dir Waves Ship Positions

Gorch Fock (Germany)

Ship's website: http://www.marine.de/01DB070000000001/CurrentBaseLink/W2698K4S188INFODE

Last reported at 2015-Sep-01 23:33 UTC. Time now 2015-Sep-04 23:13 UTC.
Position N 54°01' W 005°22'.

Length 89 m; draft 5.4 m.

Type: Sailing vessel. MMSI: 211210280.

Date/timePositionNaut miles runAvg speedWind from/ knotsBaromVisibWave heightAir tempDewpointWater temp
2015-Sep-01 23:33N 54°01' W 005°22'7 6.8
2015-Sep-01 22:33N 54°08' W 005°21'7 6.7
2015-Sep-01 21:33N 54°15' W 005°19'8 7.9
2015-Sep-01 20:33N 54°22' W 005°16'8 8.0
2015-Sep-01 19:33N 54°30' W 005°17'9 8.6
2015-Sep-01 18:33N 54°38' W 005°23'7 7.4
2015-Sep-01 17:33N 54°45' W 005°28'6 6.4
2015-Sep-01 16:33N 54°51' W 005°32'6 5.5
2015-Sep-01 15:31N 54°56' W 005°36'5 4.9
2015-Sep-01 14:33N 55°00' W 005°40'6 5.3
2015-Sep-01 13:27N 55°05' W 005°47'6 7.0
2015-Sep-01 12:33N 55°10' W 005°53'6 6.4
2015-Sep-01 11:33N 55°15' W 005°60'7 7.3
2015-Sep-01 10:33N 55°21' W 006°07'8 7.6
2015-Sep-01 09:33N 55°22' W 006°20'9 9.0
2015-Sep-01 08:33N 55°25' W 006°35'9 8.8
2015-Sep-01 07:33N 55°29' W 006°49'8 7.6
2015-Sep-01 06:33N 55°33' W 007°01'5 4.8
2015-Sep-01 05:33N 55°35' W 007°08'4 3.9
2015-Sep-01 04:30N 55°37' W 007°15'198 4.9
2015-Aug-30 12:05N 58°42' W 005°04'4 6.9
2015-Aug-30 11:28N 58°45' W 004°58'5 5.9
2015-Aug-30 10:33N 58°48' W 004°49'5 4.8
2015-Aug-30 09:33N 58°51' W 004°42'4 3.5
2015-Aug-30 08:33N 58°53' W 004°37'3 3.0
2015-Aug-30 07:33N 58°55' W 004°32'3 3.3
2015-Aug-30 06:33N 58°57' W 004°27'4 3.7
2015-Aug-30 05:33N 58°59' W 004°22'5 5.0
2015-Aug-30 04:33N 59°02' W 004°14'6 6.2
2015-Aug-30 03:33N 59°06' W 004°05'7 7.1
2015-Aug-30 02:33N 59°10' W 003°54'7 7.2
2015-Aug-30 01:33N 59°15' W 003°43'7 7.0
2015-Aug-30 00:33N 59°19' W 003°32'7 6.8
2015-Aug-29 23:34N 59°24' W 003°22'  
2015-Aug-26 09:12N 57°53' E 010°01'6 9.2
2015-Aug-26 08:34N 57°56' E 010°10'6 5.7
2015-Aug-26 07:33N 57°57' E 010°21'5 5.3
2015-Aug-26 06:33N 57°56' E 010°30'3 3.4
2015-Aug-26 05:33N 57°55' E 010°37'3 2.9
2015-Aug-26 04:34N 57°55' E 010°42'3 2.8
2015-Aug-26 03:33N 57°54' E 010°47'3 2.8
2015-Aug-26 02:33N 57°52' E 010°51'3 2.6
2015-Aug-26 01:34N 57°50' E 010°54'3 2.8
2015-Aug-26 00:34N 57°48' E 010°57'3 3.0
2015-Aug-25 23:33N 57°46' E 011°01'3 3.0
2015-Aug-25 22:34N 57°43' E 011°04'4 4.1
2015-Aug-25 21:33N 57°40' E 011°08'5 4.6
2015-Aug-25 20:33N 57°36' E 011°13'5 4.7
2015-Aug-25 19:34N 57°32' E 011°18'5 5.1
2015-Aug-25 18:33N 57°28' E 011°23'6 6.2
2015-Aug-25 17:34N 57°22' E 011°28'7 6.8
2015-Aug-25 16:34N 57°16' E 011°34'6 6.2
2015-Aug-25 15:34N 57°10' E 011°37'7 6.8
2015-Aug-25 14:33N 57°04' E 011°44'6 6.2
2015-Aug-25 13:33N 56°59' E 011°50'2 2.4
2015-Aug-25 12:33N 56°59' E 011°46'4 3.9
2015-Aug-25 11:33N 56°56' E 011°47'5 5.4
2015-Aug-25 10:32N 56°50' E 011°50'5 4.9
2015-Aug-25 09:33N 56°46' E 011°53'5 5.4
2015-Aug-25 08:33N 56°41' E 011°49'7 6.7
2015-Aug-25 07:33N 56°35' E 011°43'72 5.9
2015-Aug-24 19:25N 55°28' E 010°56'5 5.7
2015-Aug-24 18:32N 55°24' E 011°01'7 7.3
2015-Aug-24 17:33N 55°17' E 011°04'8 7.8
2015-Aug-24 16:33N 55°09' E 011°03'8 8.5
2015-Aug-24 15:33N 55°01' E 011°02'9 8.8
2015-Aug-24 14:33N 54°53' E 010°54'9 9.0
2015-Aug-24 13:30N 54°44' E 010°53'8 8.7
2015-Aug-24 12:33N 54°36' E 010°50'12 5.8
2015-Aug-24 10:28N 54°32' E 010°30'16 7.0
2015-Aug-24 08:13N 54°22' E 010°10'1 1.5
2015-Aug-24 07:33N 54°21' E 010°09'0 0.0
2015-Aug-24 06:33N 54°21' E 010°09'0 0.0
2015-Aug-24 05:33N 54°21' E 010°09'0 0.0
2015-Aug-24 04:30N 54°21' E 010°09'0 0.0
2015-Aug-24 03:33N 54°21' E 010°09'0 0.0
2015-Aug-24 02:33N 54°21' E 010°09'0 0.0
2015-Aug-24 01:30N 54°21' E 010°09'0 0.0
2015-Aug-24 00:33N 54°21' E 010°09'0 0.0
2015-Aug-23 23:33N 54°21' E 010°09'0 0.0
2015-Aug-23 22:33N 54°21' E 010°09'0 0.0
2015-Aug-23 21:33N 54°21' E 010°09'0 0.0
2015-Aug-23 20:33N 54°21' E 010°09'0 0.0
2015-Aug-23 19:33N 54°21' E 010°09'0 0.0
2015-Aug-23 18:33N 54°21' E 010°09'0 0.0
2015-Aug-23 17:33N 54°21' E 010°09'0 0.0
2015-Aug-23 16:30N 54°21' E 010°09'0 0.0
2015-Aug-23 15:33N 54°21' E 010°09'0 0.0
2015-Aug-23 14:33N 54°21' E 010°09'0 0.0
2015-Aug-23 13:33N 54°21' E 010°09'0 0.0
2015-Aug-23 12:33N 54°21' E 010°09'0 0.0
2015-Aug-23 11:33N 54°21' E 010°09'0 0.0
2015-Aug-23 10:33N 54°21' E 010°09'0 0.0
2015-Aug-23 09:27N 54°21' E 010°09'0 0.0
2015-Aug-23 08:33N 54°21' E 010°09'0 0.0
2015-Aug-23 07:33N 54°21' E 010°09'0 0.0
2015-Aug-23 06:33N 54°21' E 010°09'0 0.0
2015-Aug-23 05:33N 54°21' E 010°09'0 0.0
2015-Aug-23 04:30N 54°21' E 010°09'0 0.0
2015-Aug-23 03:33N 54°21' E 010°09'0 0.0
2015-Aug-23 02:33N 54°21' E 010°09'0 0.0
2015-Aug-23 01:33N 54°21' E 010°09'0 0.0
2015-Aug-23 00:33N 54°21' E 010°09'  
Track history (hours):
 
Tides and Currents Weather Stations Pressure Air Temp Water Temp Dewpoint Dewpoint Depression Visibility Wind Speed Wind Dir Waves Ship Positions

Gorch Fock (Germany)

Ship's website: http://www.marine.de/01DB070000000001/CurrentBaseLink/W2698K4S188INFODE

Last reported at 2015-Sep-01 23:33 UTC. Time now 2015-Sep-04 23:13 UTC.
Position N 54°01' W 005°22'.

Length 89 m; draft 5.4 m.

Type: Sailing vessel. MMSI: 211210280.

Date/timePositionNaut miles runAvg speedWind from/ knotsBaromVisibWave heightAir tempDewpointWater temp
2015-Sep-01 23:33N 54°01' W 005°22'7 6.8
2015-Sep-01 22:33N 54°08' W 005°21'7 6.7
2015-Sep-01 21:33N 54°15' W 005°19'8 7.9
2015-Sep-01 20:33N 54°22' W 005°16'8 8.0
2015-Sep-01 19:33N 54°30' W 005°17'9 8.6
2015-Sep-01 18:33N 54°38' W 005°23'7 7.4
2015-Sep-01 17:33N 54°45' W 005°28'6 6.4
2015-Sep-01 16:33N 54°51' W 005°32'6 5.5
2015-Sep-01 15:31N 54°56' W 005°36'5 4.9
2015-Sep-01 14:33N 55°00' W 005°40'6 5.3
2015-Sep-01 13:27N 55°05' W 005°47'6 7.0
2015-Sep-01 12:33N 55°10' W 005°53'6 6.4
2015-Sep-01 11:33N 55°15' W 005°60'7 7.3
2015-Sep-01 10:33N 55°21' W 006°07'8 7.6
2015-Sep-01 09:33N 55°22' W 006°20'9 9.0
2015-Sep-01 08:33N 55°25' W 006°35'9 8.8
2015-Sep-01 07:33N 55°29' W 006°49'8 7.6
2015-Sep-01 06:33N 55°33' W 007°01'5 4.8
2015-Sep-01 05:33N 55°35' W 007°08'4 3.9
2015-Sep-01 04:30N 55°37' W 007°15'198 4.9
2015-Aug-30 12:05N 58°42' W 005°04'4 6.9
2015-Aug-30 11:28N 58°45' W 004°58'5 5.9
2015-Aug-30 10:33N 58°48' W 004°49'5 4.8
2015-Aug-30 09:33N 58°51' W 004°42'4 3.5
2015-Aug-30 08:33N 58°53' W 004°37'3 3.0
2015-Aug-30 07:33N 58°55' W 004°32'3 3.3
2015-Aug-30 06:33N 58°57' W 004°27'4 3.7
2015-Aug-30 05:33N 58°59' W 004°22'5 5.0
2015-Aug-30 04:33N 59°02' W 004°14'6 6.2
2015-Aug-30 03:33N 59°06' W 004°05'7 7.1
2015-Aug-30 02:33N 59°10' W 003°54'7 7.2
2015-Aug-30 01:33N 59°15' W 003°43'7 7.0
2015-Aug-30 00:33N 59°19' W 003°32'7 6.8
2015-Aug-29 23:34N 59°24' W 003°22'  
2015-Aug-26 09:12N 57°53' E 010°01'6 9.2
2015-Aug-26 08:34N 57°56' E 010°10'6 5.7
2015-Aug-26 07:33N 57°57' E 010°21'5 5.3
2015-Aug-26 06:33N 57°56' E 010°30'3 3.4
2015-Aug-26 05:33N 57°55' E 010°37'3 2.9
2015-Aug-26 04:34N 57°55' E 010°42'3 2.8
2015-Aug-26 03:33N 57°54' E 010°47'3 2.8
2015-Aug-26 02:33N 57°52' E 010°51'3 2.6
2015-Aug-26 01:34N 57°50' E 010°54'3 2.8
2015-Aug-26 00:34N 57°48' E 010°57'3 3.0
2015-Aug-25 23:33N 57°46' E 011°01'3 3.0
2015-Aug-25 22:34N 57°43' E 011°04'4 4.1
2015-Aug-25 21:33N 57°40' E 011°08'5 4.6
2015-Aug-25 20:33N 57°36' E 011°13'5 4.7
2015-Aug-25 19:34N 57°32' E 011°18'5 5.1
2015-Aug-25 18:33N 57°28' E 011°23'6 6.2
2015-Aug-25 17:34N 57°22' E 011°28'7 6.8
2015-Aug-25 16:34N 57°16' E 011°34'6 6.2
2015-Aug-25 15:34N 57°10' E 011°37'7 6.8
2015-Aug-25 14:33N 57°04' E 011°44'6 6.2
2015-Aug-25 13:33N 56°59' E 011°50'2 2.4
2015-Aug-25 12:33N 56°59' E 011°46'4 3.9
2015-Aug-25 11:33N 56°56' E 011°47'5 5.4
2015-Aug-25 10:32N 56°50' E 011°50'5 4.9
2015-Aug-25 09:33N 56°46' E 011°53'5 5.4
2015-Aug-25 08:33N 56°41' E 011°49'7 6.7
2015-Aug-25 07:33N 56°35' E 011°43'72 5.9
2015-Aug-24 19:25N 55°28' E 010°56'5 5.7
2015-Aug-24 18:32N 55°24' E 011°01'7 7.3
2015-Aug-24 17:33N 55°17' E 011°04'8 7.8
2015-Aug-24 16:33N 55°09' E 011°03'8 8.5
2015-Aug-24 15:33N 55°01' E 011°02'9 8.8
2015-Aug-24 14:33N 54°53' E 010°54'9 9.0
2015-Aug-24 13:30N 54°44' E 010°53'8 8.7
2015-Aug-24 12:33N 54°36' E 010°50'12 5.8
2015-Aug-24 10:28N 54°32' E 010°30'16 7.0
2015-Aug-24 08:13N 54°22' E 010°10'1 1.5
2015-Aug-24 07:33N 54°21' E 010°09'0 0.0
2015-Aug-24 06:33N 54°21' E 010°09'0 0.0
2015-Aug-24 05:33N 54°21' E 010°09'0 0.0
2015-Aug-24 04:30N 54°21' E 010°09'0 0.0
2015-Aug-24 03:33N 54°21' E 010°09'0 0.0
2015-Aug-24 02:33N 54°21' E 010°09'0 0.0
2015-Aug-24 01:30N 54°21' E 010°09'0 0.0
2015-Aug-24 00:33N 54°21' E 010°09'0 0.0
2015-Aug-23 23:33N 54°21' E 010°09'0 0.0
2015-Aug-23 22:33N 54°21' E 010°09'0 0.0
2015-Aug-23 21:33N 54°21' E 010°09'0 0.0
2015-Aug-23 20:33N 54°21' E 010°09'0 0.0
2015-Aug-23 19:33N 54°21' E 010°09'0 0.0
2015-Aug-23 18:33N 54°21' E 010°09'0 0.0
2015-Aug-23 17:33N 54°21' E 010°09'0 0.0
2015-Aug-23 16:30N 54°21' E 010°09'0 0.0
2015-Aug-23 15:33N 54°21' E 010°09'0 0.0
2015-Aug-23 14:33N 54°21' E 010°09'0 0.0
2015-Aug-23 13:33N 54°21' E 010°09'0 0.0
2015-Aug-23 12:33N 54°21' E 010°09'0 0.0
2015-Aug-23 11:33N 54°21' E 010°09'0 0.0
2015-Aug-23 10:33N 54°21' E 010°09'0 0.0
2015-Aug-23 09:27N 54°21' E 010°09'0 0.0
2015-Aug-23 08:33N 54°21' E 010°09'0 0.0
2015-Aug-23 07:33N 54°21' E 010°09'0 0.0
2015-Aug-23 06:33N 54°21' E 010°09'0 0.0
2015-Aug-23 05:33N 54°21' E 010°09'0 0.0
2015-Aug-23 04:30N 54°21' E 010°09'0 0.0
2015-Aug-23 03:33N 54°21' E 010°09'0 0.0
2015-Aug-23 02:33N 54°21' E 010°09'0 0.0
2015-Aug-23 01:33N 54°21' E 010°09'0 0.0
2015-Aug-23 00:33N 54°21' E 010°09'  

Dump ship's entire track history